createdAt,value
2018-03-22T00:00:00.364Z,83.74
2018-03-22T00:02:26.185Z,83.68
2018-03-22T00:04:52.416Z,83.41
2018-03-22T00:07:18.216Z,82.89
2018-03-22T00:09:44.008Z,82.77
2018-03-22T00:12:09.819Z,82.70
2018-03-22T00:14:35.611Z,82.24
2018-03-22T00:17:01.407Z,82.34
2018-03-22T00:19:27.223Z,82.12
2018-03-22T00:21:53.004Z,81.54
2018-03-22T00:24:18.805Z,81.35
2018-03-22T00:26:44.876Z,81.42
2018-03-22T00:29:10.693Z,81.19
2018-03-22T00:31:36.512Z,80.36
2018-03-22T00:34:02.311Z,80.60
2018-03-22T00:36:28.104Z,80.53
2018-03-22T00:38:53.903Z,81.30
2018-03-22T00:41:19.715Z,80.82
2018-03-22T00:43:45.586Z,80.48
2018-03-22T00:46:11.371Z,80.03
2018-03-22T00:48:37.168Z,79.88
2018-03-22T00:51:02.974Z,80.24
2018-03-22T00:53:28.763Z,79.95
2018-03-22T00:55:54.591Z,80.23
2018-03-22T00:58:20.394Z,80.38
2018-03-22T01:00:46.187Z,80.15
2018-03-22T01:03:11.997Z,80.08
2018-03-22T01:05:37.782Z,80.17
2018-03-22T01:08:03.574Z,80.29
2018-03-22T01:10:29.438Z,80.35
2018-03-22T01:12:55.239Z,81.42
2018-03-22T01:15:21.019Z,81.01
2018-03-22T01:17:47.143Z,81.39
2018-03-22T01:20:12.938Z,81.40
2018-03-22T01:22:38.732Z,81.97
2018-03-22T01:25:04.553Z,82.22
2018-03-22T01:27:30.351Z,83.05
2018-03-22T01:29:56.147Z,83.55
2018-03-22T01:32:21.976Z,84.05
2018-03-22T01:34:47.767Z,84.60
2018-03-22T01:37:13.561Z,85.33
2018-03-22T01:39:39.374Z,85.66
2018-03-22T01:42:05.180Z,86.48
2018-03-22T01:44:30.976Z,86.95
2018-03-22T01:46:56.806Z,87.90
2018-03-22T01:49:22.574Z,89.73
2018-03-22T01:51:48.355Z,90.80
2018-03-22T01:54:14.139Z,92.13
2018-03-22T01:56:39.972Z,93.41
2018-03-22T01:59:05.773Z,94.92
2018-03-22T02:01:31.587Z,95.34
2018-03-22T02:03:57.692Z,95.72
2018-03-22T02:06:23.482Z,96.06
2018-03-22T02:08:49.276Z,96.63
2018-03-22T02:11:15.132Z,96.91
2018-03-22T02:13:40.935Z,97.09
2018-03-22T02:16:06.799Z,97.37
2018-03-22T02:18:32.621Z,97.84
2018-03-22T02:20:58.967Z,98.46
2018-03-22T02:23:24.742Z,98.76
2018-03-22T02:25:50.537Z,99.01
2018-03-22T02:28:16.333Z,99.15
2018-03-22T02:30:42.112Z,99.50
2018-03-22T02:33:07.915Z,99.79
2018-03-22T02:35:33.688Z,99.79
2018-03-22T02:37:59.480Z,99.99
2018-03-22T02:40:25.404Z,100.00
2018-03-22T02:42:51.245Z,100.00
2018-03-22T02:45:17.010Z,100.00
2018-03-22T02:47:42.842Z,100.00
2018-03-22T02:50:08.660Z,100.00
2018-03-22T02:52:34.480Z,100.00
2018-03-22T02:55:00.296Z,100.00
2018-03-22T02:57:26.121Z,100.00
2018-03-22T02:59:51.931Z,100.00
2018-03-22T03:02:17.745Z,100.00
2018-03-22T03:04:43.543Z,100.00
2018-03-22T03:07:09.358Z,100.00
2018-03-22T03:09:35.139Z,100.00
2018-03-22T03:12:00.978Z,100.00
2018-03-22T03:14:26.759Z,100.00
2018-03-22T03:16:52.557Z,100.00
2018-03-22T03:19:18.364Z,100.00
2018-03-22T03:21:44.160Z,100.00
2018-03-22T03:24:09.946Z,100.00
2018-03-22T03:26:35.777Z,100.00
2018-03-22T03:29:01.564Z,100.00
2018-03-22T03:31:27.354Z,100.00
2018-03-22T03:33:53.162Z,100.00
2018-03-22T03:36:19.009Z,100.00
2018-03-22T03:38:44.823Z,100.00
2018-03-22T03:41:10.637Z,100.00
2018-03-22T03:43:36.428Z,100.00
2018-03-22T03:46:02.222Z,100.00
2018-03-22T03:48:28.039Z,100.00
2018-03-22T03:50:53.844Z,100.00
2018-03-22T03:53:19.643Z,100.00
2018-03-22T03:55:45.471Z,100.00
2018-03-22T03:58:11.281Z,100.00
2018-03-22T04:00:37.072Z,100.00
2018-03-22T04:03:02.893Z,100.00
2018-03-22T04:05:28.691Z,100.00
2018-03-22T04:07:54.464Z,100.00
2018-03-22T04:10:20.272Z,100.00
2018-03-22T04:12:46.068Z,100.00
2018-03-22T04:15:11.888Z,100.00
2018-03-22T04:17:37.730Z,100.00
2018-03-22T04:20:03.524Z,100.00
2018-03-22T04:22:29.332Z,100.00
2018-03-22T04:24:55.976Z,100.00
2018-03-22T04:27:21.764Z,100.00
2018-03-22T04:29:47.553Z,100.00
2018-03-22T04:32:13.353Z,100.00
2018-03-22T04:34:39.130Z,100.00
2018-03-22T04:37:04.912Z,100.00
2018-03-22T04:39:30.723Z,100.00
2018-03-22T04:41:56.512Z,100.00
2018-03-22T04:44:22.291Z,100.00
2018-03-22T04:46:55.188Z,100.00
2018-03-22T04:49:20.963Z,100.00
2018-03-22T04:51:46.747Z,100.00
2018-03-22T04:54:12.537Z,100.00
2018-03-22T04:56:38.576Z,100.00
2018-03-22T04:59:04.375Z,100.00
2018-03-22T05:01:30.208Z,100.00
2018-03-22T05:03:56.014Z,100.00
2018-03-22T05:06:21.793Z,100.00
2018-03-22T05:08:47.587Z,100.00
2018-03-22T05:11:13.401Z,100.00
2018-03-22T05:13:39.190Z,100.00
2018-03-22T05:16:04.989Z,100.00
2018-03-22T05:18:30.779Z,100.00
2018-03-22T05:20:56.667Z,100.00
2018-03-22T05:23:22.464Z,100.00
2018-03-22T05:25:48.256Z,100.00
2018-03-22T05:28:14.043Z,100.00
2018-03-22T05:30:39.834Z,100.00
2018-03-22T05:33:05.624Z,100.00
2018-03-22T05:35:31.415Z,100.00
2018-03-22T05:37:57.245Z,100.00
2018-03-22T05:40:23.089Z,100.00
2018-03-22T05:42:48.887Z,100.00
2018-03-22T05:45:14.703Z,100.00
2018-03-22T05:47:40.512Z,100.00
2018-03-22T05:50:07.119Z,100.00
2018-03-22T05:52:33.219Z,100.00
2018-03-22T05:54:59.006Z,100.00
2018-03-22T05:57:24.792Z,100.00
2018-03-22T05:59:50.599Z,100.00
2018-03-22T06:02:16.417Z,100.00
2018-03-22T06:04:42.234Z,100.00
2018-03-22T06:07:08.041Z,100.00
2018-03-22T06:09:33.833Z,100.00
2018-03-22T06:11:59.621Z,100.00
2018-03-22T06:14:25.516Z,100.00
2018-03-22T06:16:51.377Z,100.00
2018-03-22T06:19:17.169Z,100.00
2018-03-22T06:21:42.988Z,100.00
2018-03-22T06:24:08.797Z,100.00
2018-03-22T06:26:34.619Z,100.00
2018-03-22T06:29:00.494Z,100.00
2018-03-22T06:31:26.287Z,100.00
2018-03-22T06:33:52.095Z,100.00
2018-03-22T06:36:17.897Z,100.00
2018-03-22T06:38:43.686Z,100.00
2018-03-22T06:41:09.535Z,100.00
2018-03-22T06:43:35.325Z,100.00
2018-03-22T06:46:01.142Z,100.00
2018-03-22T06:48:26.964Z,100.00
2018-03-22T06:50:52.769Z,100.00
2018-03-22T06:53:18.561Z,100.00
2018-03-22T06:55:44.363Z,100.00
2018-03-22T06:58:10.156Z,100.00
2018-03-22T07:00:36.053Z,100.00
2018-03-22T07:03:01.830Z,100.00
2018-03-22T07:05:27.617Z,100.00
2018-03-22T07:07:53.430Z,100.00
2018-03-22T07:10:19.223Z,100.00
2018-03-22T07:12:45.042Z,100.00
2018-03-22T07:15:10.863Z,100.00
2018-03-22T07:17:36.673Z,100.00
2018-03-22T07:20:02.501Z,100.00
2018-03-22T07:22:28.323Z,100.00
2018-03-22T07:24:54.133Z,100.00
2018-03-22T07:27:19.920Z,100.00
2018-03-22T07:29:45.715Z,100.00
2018-03-22T07:32:11.516Z,100.00
2018-03-22T07:34:37.336Z,100.00
2018-03-22T07:37:03.136Z,100.00
2018-03-22T07:39:28.949Z,100.00
2018-03-22T07:41:54.764Z,100.00
2018-03-22T07:44:26.654Z,100.00
2018-03-22T07:46:59.790Z,100.00
2018-03-22T07:49:25.603Z,100.00
2018-03-22T07:51:51.417Z,100.00
2018-03-22T07:54:17.249Z,100.00
2018-03-22T07:56:43.068Z,100.00
2018-03-22T07:59:08.872Z,100.00
2018-03-22T08:01:34.670Z,100.00
2018-03-22T08:04:00.458Z,100.00
2018-03-22T08:06:26.276Z,100.00
2018-03-22T08:08:52.072Z,100.00
2018-03-22T08:11:17.866Z,100.00
2018-03-22T08:13:43.872Z,100.00
2018-03-22T08:16:09.696Z,100.00
2018-03-22T08:18:35.488Z,100.00
2018-03-22T08:21:01.320Z,100.00
2018-03-22T08:23:27.100Z,100.00
2018-03-22T08:25:52.890Z,100.00
2018-03-22T08:28:18.706Z,100.00
2018-03-22T08:30:44.522Z,100.00
2018-03-22T08:33:10.299Z,100.00
2018-03-22T08:35:36.459Z,100.00
2018-03-22T08:38:02.234Z,100.00
2018-03-22T08:40:28.036Z,100.00
2018-03-22T08:42:53.835Z,100.00
2018-03-22T08:45:19.639Z,100.00
2018-03-22T08:47:45.639Z,100.00
2018-03-22T08:50:11.458Z,100.00
2018-03-22T08:52:37.235Z,100.00
2018-03-22T08:55:03.414Z,100.00
2018-03-22T08:57:29.195Z,100.00
2018-03-22T08:59:54.998Z,100.00
2018-03-22T09:02:20.798Z,100.00
2018-03-22T09:04:46.624Z,100.00
2018-03-22T09:07:12.429Z,100.00
2018-03-22T09:09:38.251Z,100.00
2018-03-22T09:12:04.087Z,100.00
2018-03-22T09:14:29.860Z,100.00
2018-03-22T09:16:55.675Z,100.00
2018-03-22T09:19:21.455Z,100.00
2018-03-22T09:21:47.254Z,100.00
2018-03-22T09:24:13.053Z,100.00
2018-03-22T09:26:44.904Z,100.00
2018-03-22T09:29:10.708Z,100.00
2018-03-22T09:31:36.482Z,100.00
2018-03-22T09:34:02.304Z,100.00
2018-03-22T09:36:28.104Z,100.00
2018-03-22T09:38:53.898Z,100.00
2018-03-22T09:41:19.703Z,100.00
2018-03-22T09:43:45.502Z,100.00
2018-03-22T09:46:11.297Z,100.00
2018-03-22T09:48:37.422Z,100.00
2018-03-22T09:51:03.248Z,100.00
2018-03-22T09:53:29.041Z,100.00
2018-03-22T09:55:54.860Z,100.00
2018-03-22T09:58:20.659Z,100.00
2018-03-22T10:00:46.464Z,100.00
2018-03-22T10:03:12.286Z,100.00
2018-03-22T10:05:38.077Z,100.00
2018-03-22T10:08:03.859Z,100.00
2018-03-22T10:10:29.657Z,100.00
2018-03-22T10:12:55.450Z,100.00
2018-03-22T10:15:21.244Z,100.00
2018-03-22T10:17:47.039Z,100.00
2018-03-22T10:20:12.828Z,100.00
2018-03-22T10:22:39.011Z,100.00
2018-03-22T10:25:04.833Z,100.00
2018-03-22T10:27:30.632Z,100.00
2018-03-22T10:29:56.413Z,100.00
2018-03-22T10:32:22.199Z,100.00
2018-03-22T10:34:48.019Z,100.00
2018-03-22T10:37:13.825Z,100.00
2018-03-22T10:39:39.607Z,100.00
2018-03-22T10:42:05.407Z,100.00
2018-03-22T10:44:31.189Z,100.00
2018-03-22T10:46:56.979Z,100.00
2018-03-22T10:49:22.805Z,100.00
2018-03-22T10:51:48.604Z,100.00
2018-03-22T10:54:14.395Z,100.00
2018-03-22T10:56:40.222Z,100.00
2018-03-22T10:59:06.033Z,100.00
2018-03-22T11:01:37.955Z,100.00
2018-03-22T11:04:06.671Z,100.00
2018-03-22T11:06:32.460Z,100.00
2018-03-22T11:08:58.256Z,100.00
2018-03-22T11:11:24.084Z,100.00
2018-03-22T11:13:49.902Z,100.00
2018-03-22T11:16:15.660Z,100.00
2018-03-22T11:18:41.455Z,100.00
2018-03-22T11:21:07.256Z,100.00
2018-03-22T11:23:33.056Z,100.00
2018-03-22T11:25:58.854Z,100.00
2018-03-22T11:28:24.667Z,100.00
2018-03-22T11:30:50.456Z,100.00
2018-03-22T11:33:16.241Z,100.00
2018-03-22T11:35:42.040Z,100.00
2018-03-22T11:38:07.851Z,100.00
2018-03-22T11:40:33.639Z,100.00
2018-03-22T11:42:59.435Z,100.00
2018-03-22T11:45:25.238Z,100.00
2018-03-22T11:47:51.016Z,100.00
2018-03-22T11:50:16.820Z,100.00
2018-03-22T11:52:42.606Z,100.00
2018-03-22T11:55:08.507Z,100.00
2018-03-22T11:57:34.287Z,100.00
2018-03-22T12:00:00.093Z,100.00
2018-03-22T12:02:25.894Z,100.00
2018-03-22T12:04:51.684Z,100.00
2018-03-22T12:07:17.514Z,100.00
2018-03-22T12:09:43.295Z,99.74
2018-03-22T12:12:09.096Z,99.96
2018-03-22T12:14:34.912Z,99.93
2018-03-22T12:17:00.708Z,99.88
2018-03-22T12:19:26.512Z,100.00
2018-03-22T12:21:52.340Z,100.00
2018-03-22T12:24:18.149Z,100.00
2018-03-22T12:26:43.988Z,100.00
2018-03-22T12:29:09.783Z,100.00
2018-03-22T12:31:35.572Z,100.00
2018-03-22T12:34:01.394Z,100.00
2018-03-22T12:36:27.203Z,100.00
2018-03-22T12:38:52.993Z,100.00
2018-03-22T12:41:18.832Z,100.00
2018-03-22T12:43:44.640Z,100.00
2018-03-22T12:46:10.433Z,100.00
2018-03-22T12:48:36.265Z,100.00
2018-03-22T12:51:02.069Z,99.96
2018-03-22T12:53:27.867Z,99.92
2018-03-22T12:55:53.910Z,100.00
2018-03-22T12:58:19.713Z,99.92
2018-03-22T13:00:45.496Z,99.75
2018-03-22T13:03:11.301Z,99.77
2018-03-22T13:05:37.095Z,99.85
2018-03-22T13:08:02.936Z,100.00
2018-03-22T13:10:28.738Z,100.00
2018-03-22T13:12:54.550Z,100.00
2018-03-22T13:15:20.376Z,99.95
2018-03-22T13:17:46.173Z,99.82
2018-03-22T13:20:11.959Z,99.77
2018-03-22T13:22:37.762Z,99.44
2018-03-22T13:25:03.548Z,99.67
2018-03-22T13:27:29.355Z,99.15
2018-03-22T13:29:55.239Z,98.59
2018-03-22T13:32:20.987Z,98.85
2018-03-22T13:34:46.772Z,98.98
2018-03-22T13:37:12.572Z,98.22
2018-03-22T13:39:38.347Z,98.13
2018-03-22T13:42:04.130Z,97.55
2018-03-22T13:44:29.959Z,97.50
2018-03-22T13:46:55.769Z,97.80
2018-03-22T13:49:21.649Z,98.39
2018-03-22T13:51:47.475Z,99.05
2018-03-22T13:54:13.269Z,99.38
2018-03-22T13:56:39.075Z,99.61
2018-03-22T13:59:04.879Z,100.00
2018-03-22T14:01:30.655Z,100.00
2018-03-22T14:03:56.455Z,100.00
2018-03-22T14:06:22.271Z,100.00
2018-03-22T14:08:48.069Z,100.00
2018-03-22T14:11:13.863Z,100.00
2018-03-22T14:13:39.661Z,100.00
2018-03-22T14:16:05.759Z,100.00
2018-03-22T14:18:31.574Z,100.00
2018-03-22T14:20:57.366Z,100.00
2018-03-22T14:23:23.204Z,100.00
2018-03-22T14:25:49.015Z,100.00
2018-03-22T14:28:14.802Z,100.00
2018-03-22T14:30:40.632Z,100.00
2018-03-22T14:33:06.441Z,100.00
2018-03-22T14:35:32.230Z,100.00
2018-03-22T14:37:58.018Z,100.00
2018-03-22T14:40:23.803Z,100.00
2018-03-22T14:42:49.856Z,100.00
2018-03-22T14:45:15.648Z,100.00
2018-03-22T14:47:41.436Z,100.00
2018-03-22T14:50:07.250Z,100.00
2018-03-22T14:52:33.053Z,100.00
2018-03-22T14:54:59.354Z,100.00
2018-03-22T14:57:25.782Z,100.00
2018-03-22T14:59:54.014Z,100.00
2018-03-22T15:02:28.984Z,100.00
2018-03-22T15:04:55.441Z,100.00
2018-03-22T15:07:21.284Z,100.00
2018-03-22T15:09:47.124Z,100.00
2018-03-22T15:12:13.788Z,100.00
2018-03-22T15:14:40.141Z,100.00
2018-03-22T15:17:06.297Z,100.00
2018-03-22T15:19:32.108Z,100.00
2018-03-22T15:21:58.368Z,100.00
2018-03-22T15:24:24.267Z,100.00
2018-03-22T15:26:50.158Z,100.00
2018-03-22T15:29:16.031Z,100.00
2018-03-22T15:31:42.832Z,100.00
2018-03-22T15:34:08.689Z,100.00
2018-03-22T15:36:35.382Z,100.00
2018-03-22T15:39:01.221Z,100.00
2018-03-22T15:41:27.046Z,100.00
2018-03-22T15:43:52.868Z,100.00
2018-03-22T15:46:20.094Z,100.00
2018-03-22T15:48:45.908Z,100.00
2018-03-22T15:51:11.722Z,100.00
2018-03-22T15:53:37.562Z,100.00
2018-03-22T15:56:03.380Z,100.00
2018-03-22T15:58:29.200Z,100.00
2018-03-22T16:00:55.483Z,100.00
2018-03-22T16:03:21.668Z,100.00
2018-03-22T16:05:47.552Z,100.00
2018-03-22T16:08:13.369Z,100.00
2018-03-22T16:10:39.164Z,100.00
2018-03-22T16:13:04.980Z,100.00
2018-03-22T16:15:30.816Z,100.00
2018-03-22T16:17:59.314Z,100.00
2018-03-22T16:20:25.230Z,100.00
2018-03-22T16:22:51.086Z,100.00
2018-03-22T16:25:16.880Z,100.00
2018-03-22T16:27:44.535Z,100.00
2018-03-22T16:30:10.436Z,100.00
2018-03-22T16:32:36.234Z,100.00
2018-03-22T16:35:02.073Z,100.00
2018-03-22T16:37:28.867Z,100.00
2018-03-22T16:39:54.714Z,100.00
2018-03-22T16:42:20.515Z,100.00
2018-03-22T16:44:46.315Z,100.00
2018-03-22T16:47:13.840Z,100.00
2018-03-22T16:49:39.701Z,100.00
2018-03-22T16:52:05.504Z,100.00
2018-03-22T16:54:31.303Z,100.00
2018-03-22T16:56:57.118Z,100.00
2018-03-22T16:59:22.956Z,100.00
2018-03-22T17:01:48.893Z,100.00
2018-03-22T17:04:14.711Z,100.00
2018-03-22T17:06:40.556Z,100.00
2018-03-22T17:09:06.376Z,100.00
2018-03-22T17:11:32.247Z,100.00
2018-03-22T17:13:58.083Z,100.00
2018-03-22T17:16:23.918Z,100.00
2018-03-22T17:18:49.752Z,100.00
2018-03-22T17:21:15.583Z,100.00
2018-03-22T17:23:41.412Z,100.00
2018-03-22T17:26:07.259Z,100.00
2018-03-22T17:28:33.290Z,100.00
2018-03-22T17:30:59.135Z,100.00
2018-03-22T17:33:25.304Z,100.00
2018-03-22T17:35:51.108Z,100.00
2018-03-22T17:38:17.462Z,100.00
2018-03-22T17:40:43.280Z,100.00
2018-03-22T17:43:09.108Z,100.00
2018-03-22T17:45:36.353Z,100.00
2018-03-22T17:48:02.849Z,100.00
2018-03-22T17:50:28.695Z,100.00
2018-03-22T17:52:55.205Z,100.00
2018-03-22T17:55:21.765Z,100.00
2018-03-22T17:57:48.059Z,100.00
2018-03-22T18:00:14.874Z,100.00
2018-03-22T18:02:40.791Z,100.00
2018-03-22T18:05:06.615Z,100.00
2018-03-22T18:07:32.688Z,100.00
2018-03-22T18:09:58.509Z,100.00
2018-03-22T18:12:24.353Z,100.00
2018-03-22T18:14:50.265Z,100.00
2018-03-22T18:17:16.087Z,100.00
2018-03-22T18:19:41.888Z,100.00
2018-03-22T18:22:07.712Z,100.00
2018-03-22T18:24:33.934Z,100.00
2018-03-22T18:27:00.310Z,100.00
2018-03-22T18:29:26.161Z,100.00
2018-03-22T18:31:52.531Z,100.00
2018-03-22T18:34:18.408Z,100.00
2018-03-22T18:36:44.206Z,100.00
2018-03-22T18:39:10.060Z,100.00
2018-03-22T18:41:37.011Z,100.00
2018-03-22T18:44:02.993Z,100.00
2018-03-22T18:46:29.604Z,100.00
2018-03-22T18:48:55.427Z,100.00
2018-03-22T18:51:21.253Z,100.00
2018-03-22T18:53:47.243Z,100.00
2018-03-22T18:56:13.036Z,100.00
2018-03-22T18:58:39.046Z,100.00
2018-03-22T19:01:05.234Z,100.00
2018-03-22T19:03:31.023Z,100.00
2018-03-22T19:05:56.820Z,100.00
2018-03-22T19:08:22.962Z,100.00
2018-03-22T19:10:48.851Z,100.00
2018-03-22T19:13:15.433Z,100.00
2018-03-22T19:15:41.361Z,100.00
2018-03-22T19:18:07.922Z,100.00
2018-03-22T19:20:33.768Z,100.00
2018-03-22T19:22:59.568Z,100.00
2018-03-22T19:25:25.439Z,100.00
2018-03-22T19:27:51.244Z,100.00
2018-03-22T19:30:17.073Z,100.00
2018-03-22T19:32:42.864Z,100.00
2018-03-22T19:35:08.712Z,100.00
2018-03-22T19:37:34.554Z,100.00
2018-03-22T19:40:00.402Z,100.00
2018-03-22T19:42:33.128Z,100.00
2018-03-22T19:44:58.944Z,100.00
2018-03-22T19:47:24.727Z,100.00
2018-03-22T19:49:50.531Z,100.00
2018-03-22T19:52:16.377Z,100.00
2018-03-22T19:54:42.166Z,100.00
2018-03-22T19:57:07.968Z,100.00
2018-03-22T19:59:33.875Z,100.00
2018-03-22T20:01:59.689Z,100.00
2018-03-22T20:04:25.607Z,100.00
2018-03-22T20:06:51.421Z,100.00
2018-03-22T20:09:17.208Z,100.00
2018-03-22T20:11:43.008Z,100.00
2018-03-22T20:14:08.979Z,100.00
2018-03-22T20:16:34.778Z,100.00
2018-03-22T20:19:00.583Z,100.00
2018-03-22T20:21:26.399Z,100.00
2018-03-22T20:23:52.188Z,100.00
2018-03-22T20:26:18.008Z,100.00
2018-03-22T20:28:43.815Z,100.00
2018-03-22T20:31:09.607Z,100.00
2018-03-22T20:33:35.441Z,100.00
2018-03-22T20:36:01.256Z,100.00
2018-03-22T20:38:27.053Z,100.00
2018-03-22T20:40:53.172Z,100.00
2018-03-22T20:43:19.689Z,100.00
2018-03-22T20:45:45.493Z,99.79
2018-03-22T20:48:11.305Z,100.00
2018-03-22T20:50:37.912Z,100.00
2018-03-22T20:53:04.119Z,100.00
2018-03-22T20:55:29.949Z,100.00
2018-03-22T20:57:55.764Z,99.98
2018-03-22T21:00:21.614Z,100.00
2018-03-22T21:02:47.427Z,100.00
2018-03-22T21:05:13.420Z,100.00
2018-03-22T21:07:39.249Z,99.80
2018-03-22T21:10:05.174Z,99.98
2018-03-22T21:12:30.976Z,99.97
2018-03-22T21:14:56.821Z,100.00
2018-03-22T21:17:22.634Z,100.00
2018-03-22T21:19:48.448Z,100.00
2018-03-22T21:22:14.246Z,100.00
2018-03-22T21:24:40.075Z,99.91
2018-03-22T21:27:05.898Z,99.58
2018-03-22T21:29:31.705Z,99.72
2018-03-22T21:31:57.608Z,99.60
2018-03-22T21:34:23.432Z,100.00
2018-03-22T21:36:49.213Z,99.75
2018-03-22T21:39:15.025Z,100.00
2018-03-22T21:42:04.780Z,100.00
2018-03-22T21:44:30.711Z,99.40
2018-03-22T21:49:45.356Z,99.14
2018-03-22T21:52:23.409Z,99.18
2018-03-22T21:54:50.229Z,99.48
2018-03-22T21:57:16.059Z,99.30
2018-03-22T21:59:41.899Z,99.37
2018-03-22T22:02:07.731Z,99.44
2018-03-22T22:04:33.537Z,99.45
2018-03-22T22:06:59.323Z,99.36
2018-03-22T22:09:25.171Z,99.47
2018-03-22T22:11:50.976Z,99.34
2018-03-22T22:14:16.785Z,99.56
2018-03-22T22:16:46.744Z,98.63
2018-03-22T22:19:12.614Z,97.95
2018-03-22T22:21:38.412Z,97.55
2018-03-22T22:24:04.231Z,97.33
2018-03-22T22:26:30.071Z,97.46
2018-03-22T22:28:55.870Z,97.40
2018-03-22T22:31:21.663Z,97.61
2018-03-22T22:33:47.512Z,97.51
2018-03-22T22:36:13.339Z,97.49
2018-03-22T22:38:39.148Z,97.68
2018-03-22T22:41:05.847Z,97.12
2018-03-22T22:43:31.684Z,96.79
2018-03-22T22:45:57.507Z,97.08
2018-03-22T22:48:23.346Z,96.83
2018-03-22T22:50:49.140Z,96.43
2018-03-22T22:53:14.956Z,96.87
2018-03-22T22:55:40.789Z,97.09
2018-03-22T22:58:06.575Z,97.39
2018-03-22T23:00:33.159Z,97.39
2018-03-22T23:02:58.977Z,96.71
2018-03-22T23:05:24.782Z,97.50
2018-03-22T23:07:50.579Z,97.61
2018-03-22T23:10:16.360Z,97.75
2018-03-22T23:12:42.146Z,97.43
2018-03-22T23:15:08.705Z,97.81
2018-03-22T23:17:34.503Z,97.57
2018-03-22T23:20:00.369Z,97.35
2018-03-22T23:22:26.176Z,97.62
2018-03-22T23:24:52.324Z,98.25
2018-03-22T23:27:18.107Z,97.27
2018-03-22T23:29:43.960Z,97.73
2018-03-22T23:32:09.845Z,98.69
2018-03-22T23:34:35.636Z,97.66
2018-03-22T23:37:01.427Z,97.33
2018-03-22T23:39:27.229Z,97.21
2018-03-22T23:41:53.015Z,96.56
2018-03-22T23:44:18.802Z,97.16
2018-03-22T23:46:44.598Z,96.71
2018-03-22T23:49:10.386Z,96.46
2018-03-22T23:51:36.183Z,96.62
2018-03-22T23:54:02.013Z,96.27
2018-03-22T23:56:27.836Z,96.41
2018-03-22T23:58:53.655Z,95.97
